Latest Coastal Weather Observations for Kowanyama

IDQ60701

Issued at 8:31 pm EST Monday 14 October 2019 (issued every 10 minutes, with the page automatically refreshed every 10 minutes)

About coastal observations | Map of coastal stations | Coastal observations for QLD | Marine services | Other Formats
Station Details ID: 029038 Name: KOWANYAMA AIRPORT Lat: -15.48 Lon: 141.75 Height: 9.6 m
Data from the previous 72 hours. | See also: Recent months at Kowanyama
Date/Time
EST
Wind Sea
Height
m
Swell Vis
km
Cloud Weather Temp
°C
Press
hPa
Rain since
9am
mm
Dir  Spd
kts
Gust
kts
Height
m
Period
s
Dir
14/08:30pm SW 6 9 - - - - - Clear - 26.7 1012.4 0.0
14/08:00pm SW 7 10 - - - - - - - 27.3 1012.1 0.0
14/07:30pm WSW 7 11 - - - - - - - 28.1 1011.6 0.0
14/07:00pm WSW 7 10 - - - - - - - 29.1 1011.2 0.0
14/06:30pm WSW 8 10 - - - - - - - 30.4 1010.8 0.0
14/06:00pm WSW 9 12 - - - - - - - 32.2 1010.4 0.0
14/05:30pm W 10 14 - - - - - - - 33.2 1010.2 0.0
14/05:00pm W 10 14 - - - - - - - 34.5 1009.8 0.0
14/04:30pm N 8 16 - - - - - - - 35.8 1009.8 0.0
14/04:00pm ESE 7 10 - - - - - - - 37.4 1009.9 0.0
14/03:30pm E 5 10 - - - - - - - 36.7 1010.2 0.0
14/03:00pm ENE 3 8 - - - - - - - 37.6 1010.5 0.0
14/02:30pm ENE 6 11 - - - - - - - 37.3 1010.9 0.0
14/02:00pm ENE 7 12 - - - - - - - 36.3 1011.2 0.0
14/01:30pm NE 5 14 - - - - - - - 36.7 1011.8 0.0
14/01:00pm ENE 7 11 - - - - - - - 36.1 1012.5 0.0
14/12:30pm NNE 8 15 - - - - - - - 36.6 1013.1 0.0
14/12:00pm NE 5 10 - - - - - - - 35.1 1013.7 0.0
14/11:30am ENE 5 9 - - - - - - - 34.6 1014.2 0.0
14/11:00am ENE 6 10 - - - - - - - 33.3 1014.7 0.0
14/10:30am NE 7 11 - - - - - - - 31.8 1014.9 0.0
14/10:00am NE 7 10 - - - - - - - 30.9 1015.2 0.0
14/09:30am NE 8 12 - - - - - - - 29.9 1015.5 0.0
14/09:00am ENE 6 11 - - - - - - - 28.9 1015.7 0.0
14/08:30am NE 8 11 - - - - - - - 27.1 1015.8 0.0
14/08:00am ENE 8 11 - - - - - - - 26.3 1015.7 0.0
14/07:30am ENE 6 9 - - - - - - - 25.4 1015.4 0.0
14/07:00am E 2 3 - - - - - - - 23.9 1015.0 0.0
14/06:30am CALM 0 0 - - - - - - - 22.3 1014.6 0.0
14/06:00am CALM 0 0 - - - - - - - 22.5 1014.2 0.0
14/05:30am NE 2 4 - - - - - - - 23.0 1013.8 0.0
14/05:00am NE 3 4 - - - - - - - 23.5 1013.4 0.0
14/04:30am NNE 3 5 - - - - - - - 23.9 1013.3 0.0
14/04:00am NE 4 7 - - - - - - - 24.2 1013.0 0.0
14/03:30am NE 5 8 - - - - - - - 24.5 1012.9 0.0
14/03:00am NE 4 7 - - - - - - - 24.1 1012.7 0.0
14/02:30am ENE 4 7 - - - - - - - 24.1 1012.9 0.0
14/02:00am NE 4 6 - - - - - - - 23.6 1013.1 0.0
14/01:30am ENE 3 5 - - - - - - - 23.3 1013.3 0.0
14/01:00am E 1 4 - - - - - - - 23.3 1013.5 0.0
14/12:30am E 3 4 - - - - - - - 24.0 1013.5 0.0
14/12:00am ENE 3 4 - - - - - Mostly clear - 24.3 1013.3 0.0
 
Date/Time
EST
Wind Sea
Height
m
Swell Vis
km
Cloud Weather Temp
°C
Press
hPa
Rain since
9am
mm
Dir  Spd
kts
Gust
kts
Height
m
Period
s
Dir
13/11:30pm E 5 7 - - - - - Partly cloudy - 24.5 1013.1 0.0
13/11:00pm N 3 5 - - - - - - - 24.7 1012.4 0.0
13/10:33pm N 5 9 - - - - - Partly cloudy - 25.0 1012.4 0.0
13/10:30pm N 5 9 - - - - - Partly cloudy - 25.0 1012.2 0.0
13/10:18pm NNE 5 9 - - - - - Partly cloudy - 25.0 1012.4 0.0
13/10:00pm NNE 7 14 - - - - - Partly cloudy - 24.7 1012.2 0.0
13/09:30pm WSW 2 4 - - - - - - - 24.9 1011.4 0.0
13/09:00pm WSW 4 4 - - - - - - - 25.3 1011.2 0.0
13/08:30pm SW 4 5 - - - - - - - 25.6 1010.9 0.0
13/08:00pm WSW 5 7 - - - - - - - 26.1 1010.6 0.0
13/07:30pm W 5 7 - - - - - - - 26.5 1010.4 0.0
13/07:00pm W 7 9 - - - - - - - 27.1 1010.0 0.0
13/06:30pm WNW 7 11 - - - - - - - 28.2 1009.6 0.0
13/06:00pm W 9 13 - - - - - - - 29.6 1009.2 0.0
13/05:30pm W 12 16 - - - - - - - 30.7 1008.9 0.0
13/05:00pm W 11 15 - - - - - - - 33.0 1008.8 0.0
13/04:30pm W 11 15 - - - - - - - 33.3 1008.6 0.0
13/04:00pm W 11 16 - - - - - - - 34.6 1008.6 0.0
13/03:30pm W 10 14 - - - - - - - 34.7 1008.8 0.0
13/03:00pm WNW 13 17 - - - - - - - 35.4 1009.1 0.0
13/02:30pm WNW 12 17 - - - - - - - 36.0 1009.2 0.0
13/02:00pm WNW 10 13 - - - - - - - 36.5 1009.8 0.0
13/01:30pm WSW 5 7 - - - - - - - 36.9 1010.1 0.0
13/01:00pm ENE 5 10 - - - - - - - 37.6 1010.9 0.0
13/12:30pm NNW 4 8 - - - - - - - 36.7 1011.4 0.0
13/12:00pm N 4 8 - - - - - - - 36.0 1012.1 0.0
13/11:30am NNE 4 6 - - - - - - - 34.0 1012.8 0.0
13/11:00am NNW 5 9 - - - - - - - 33.8 1013.2 0.0
13/10:30am NNW 6 9 - - - - - - - 33.0 1013.5 0.0
13/10:00am NNW 5 7 - - - - - - - 31.9 1013.7 0.0
13/09:30am N 5 7 - - - - - - - 30.3 1014.0 0.0
13/09:00am NNE 5 8 - - - - - - - 29.0 1014.0 0.0
13/08:30am NNE 4 7 - - - - - - - 27.3 1014.0 0.0
13/08:00am N 3 5 - - - - - - - 25.0 1013.8 0.0
13/07:30am NNW 3 5 - - - - - - - 22.2 1013.4 0.0
13/07:00am CALM 0 1 - - - - - - - 18.9 1012.9 0.0
13/06:30am CALM 0 0 - - - - - - - 17.4 1012.6 0.0
13/06:00am CALM 0 0 - - - - - - - 17.4 1012.2 0.0
13/05:30am CALM 0 0 - - - - - - - 17.7 1011.8 0.0
13/05:00am CALM 0 0 - - - - - - - 18.1 1011.5 0.0
13/04:30am NE 3 4 - - - - - - - 18.8 1011.3 0.0
13/04:00am NE 4 5 - - - - - - - 19.3 1011.0 0.0
13/03:30am E 3 5 - - - - - - - 19.0 1010.3 0.0
13/03:00am NE 4 5 - - - - - - - 19.1 1010.2 0.0
13/02:30am NE 6 7 - - - - - - - 19.2 1010.3 0.0
13/02:00am NE 7 8 - - - - - - - 18.8 1010.3 0.0
13/01:30am CALM 0 0 - - - - - - - 19.0 1010.2 0.0
13/01:00am CALM 0 0 - - - - - - - 19.1 1010.5 0.0
13/12:30am N 3 6 - - - - - - - 19.4 1010.5 0.0
13/12:00am CALM 0 0 - - - - - - - 20.1 1010.5 0.0
 
Date/Time
EST
Wind Sea
Height
m
Swell Vis
km
Cloud Weather Temp
°C
Press
hPa
Rain since
9am
mm
Dir  Spd
kts
Gust
kts
Height
m
Period
s
Dir
12/11:30pm CALM 0 0 - - - - - - - 20.3 1010.8 0.0
12/11:00pm CALM 0 0 - - - - - - - 20.4 1011.0 0.0
12/10:30pm CALM 0 0 - - - - - - - 21.3 1010.9 0.0
12/10:00pm CALM 0 0 - - - - - - - 21.7 1010.8 0.0
12/09:30pm CALM 0 0 - - - - - - - 23.0 1010.4 0.0
12/09:00pm SW 3 4 - - - - - - - 24.0 1010.0 0.0
12/08:30pm SW 3 4 - - - - - - - 24.6 1009.9 0.0
12/08:00pm W 5 6 - - - - - - - 25.3 1009.8 0.0
12/07:30pm W 6 7 - - - - - - - 26.1 1009.6 0.0
12/07:00pm W 7 10 - - - - - - - 26.9 1009.4 0.0
12/06:30pm W 8 12 - - - - - - - 27.9 1009.0 0.0
12/06:00pm WNW 10 13 - - - - - - - 29.6 1008.5 0.0
12/05:30pm WNW 11 14 - - - - - - - 31.2 1008.0 0.0
12/05:00pm WNW 11 15 - - - - - - - 31.7 1007.6 0.0
12/04:30pm WNW 11 14 - - - - - - - 33.7 1007.3 0.0
12/04:00pm WNW 10 14 - - - - - - - 34.1 1007.2 0.0
12/03:30pm WNW 11 15 - - - - - - - 33.3 1007.5 0.0
12/03:00pm W 11 18 - - - - - - - 34.6 1007.9 0.0
12/02:30pm WNW 12 18 - - - - - - - 34.4 1008.2 0.0
12/02:00pm WNW 12 18 - - - - - - - 34.3 1008.4 0.0
12/01:30pm WNW 11 14 - - - - - - - 35.1 1008.8 0.0
12/01:00pm WSW 8 11 - - - - - - - 36.4 1009.5 0.0
12/12:30pm WNW 5 7 - - - - - - - 35.3 1010.2 0.0
12/12:00pm WSW 4 7 - - - - - - - 34.8 1010.9 0.0
12/11:30am NNW 5 7 - - - - - - - 33.7 1011.4 0.0
12/11:00am E 4 6 - - - - - - - 33.4 1012.0 0.0
12/10:30am NE 3 5 - - - - - - - 32.3 1012.5 0.0
12/10:00am NNE 4 6 - - - - - - - 31.4 1012.5 0.0
12/09:30am N 4 7 - - - - - - - 29.1 1012.6 0.0
12/09:00am N 4 6 - - - - - - - 27.6 1012.8 0.0
12/08:30am N 4 6 - - - - - - - 25.6 1012.8 0.0
12/08:00am N 2 4 - - - - - - - 23.7 1012.6 0.0
12/07:30am NE 3 5 - - - - - Partly cloudy - 21.6 1012.2 0.0
12/07:26am NNE 3 5 - - - - - Partly cloudy - 21.4 1012.2 0.0
12/07:00am NE 1 4 - - - - - Partly cloudy - 19.8 1011.8 0.0
12/06:35am NE 1 4 - - - - - Partly cloudy - 18.7 1011.7 0.0
12/06:30am CALM 0 3 - - - - - Partly cloudy - 18.8 1011.6 0.0
12/06:00am NNW 3 5 - - - - - - - 18.8 1011.2 0.0
12/05:30am NNE 3 5 - - - - - Partly cloudy - 19.2 1010.9 0.0
12/05:00am N 3 5 - - - - - - - 19.4 1010.5 0.0
12/04:30am NW 3 4 - - - - - - - 18.7 1010.4 0.0
12/04:00am CALM 0 0 - - - - - - - 19.0 1010.2 0.0
12/03:30am N 1 3 - - - - - - - 19.0 1010.2 0.0
12/03:00am CALM 0 3 - - - - - - - 19.1 1010.3 0.0
12/02:30am ENE 3 4 - - - - - - - 19.7 1010.4 0.0
12/02:00am NNE 3 5 - - - - - - - 19.9 1010.3 0.0
12/01:30am NE 4 5 - - - - - - - 19.9 1010.4 0.0
12/01:00am NE 5 6 - - - - - - - 20.1 1010.7 0.0
12/12:30am NE 5 7 - - - - - - - 20.3 1010.7 0.0
12/12:00am CALM 0 0 - - - - - - - 19.4 1010.2 0.0
 
Date/Time
EST
Wind Sea
Height
m
Swell Vis
km
Cloud Weather Temp
°C
Press
hPa
Rain since
9am
mm
Dir  Spd
kts
Gust
kts
Height
m
Period
s
Dir
11/11:30pm CALM 0 0 - - - - - - - 20.3 1010.3 0.0
11/11:00pm CALM 0 0 - - - - - - - 20.9 1010.4 0.0
11/10:30pm WNW 1 3 - - - - - - - 21.8 1010.5 0.0
11/10:00pm WNW 2 3 - - - - - - - 22.4 1010.6 0.0
11/09:30pm WNW 4 5 - - - - - - - 23.2 1010.4 0.0
11/09:00pm WNW 4 4 - - - - - - - 23.5 1010.3 0.0

Other formats

Comma delimited format used in spreadsheet applications
http://www.bom.gov.au/fwo/IDQ60701/IDQ60701.94268.axf

JavaScript Object Notation format (JSON) in row-major order
http://www.bom.gov.au/fwo/IDQ60701/IDQ60701.94268.json

Data quality

Most of these data are generated automatically and are frequently updated. Quality checks on data are not normally performed. It is possible for incorrect values to appear. Refer to information at About Latest Weather Observations and please check the disclaimer before using these data.